createdAt,value
2018-04-12T00:01:16.462Z,94.78
2018-04-12T00:03:43.854Z,94.75
2018-04-12T00:06:11.249Z,94.74
2018-04-12T00:08:38.654Z,94.54
2018-04-12T00:11:06.049Z,94.56
2018-04-12T00:13:33.534Z,94.47
2018-04-12T00:16:00.958Z,94.12
2018-04-12T00:18:28.357Z,94.24
2018-04-12T00:20:55.756Z,94.42
2018-04-12T00:23:23.162Z,94.84
2018-04-12T00:25:50.561Z,95.00
2018-04-12T00:28:17.957Z,94.97
2018-04-12T00:30:45.350Z,94.71
2018-04-12T00:33:12.779Z,94.75
2018-04-12T00:35:40.165Z,94.86
2018-04-12T00:38:07.561Z,94.87
2018-04-12T00:40:34.954Z,94.91
2018-04-12T00:43:02.345Z,95.01
2018-04-12T00:45:30.265Z,95.25
2018-04-12T00:47:57.661Z,96.02
2018-04-12T00:50:25.053Z,96.59
2018-04-12T00:52:52.475Z,96.35
2018-04-12T00:55:19.880Z,96.21
2018-04-12T00:57:47.270Z,96.12
2018-04-12T01:00:14.716Z,96.02
2018-04-12T01:02:42.174Z,96.09
2018-04-12T01:05:09.633Z,96.05
2018-04-12T01:07:37.032Z,95.85
2018-04-12T01:10:04.417Z,95.58
2018-04-12T01:12:31.897Z,95.36
2018-04-12T01:14:59.303Z,95.16
2018-04-12T01:17:26.694Z,94.75
2018-04-12T01:19:54.090Z,94.56
2018-04-12T01:22:21.494Z,94.14
2018-04-12T01:24:48.889Z,93.99
2018-04-12T01:27:16.281Z,93.75
2018-04-12T01:29:43.689Z,93.33
2018-04-12T01:32:11.073Z,92.91
2018-04-12T01:34:38.550Z,93.12
2018-04-12T01:37:06.008Z,93.10
2018-04-12T01:39:33.400Z,93.34
2018-04-12T01:42:00.816Z,93.48
2018-04-12T01:44:28.216Z,93.46
2018-04-12T01:46:55.605Z,93.47
2018-04-12T01:49:22.997Z,93.33
2018-04-12T01:51:50.493Z,93.12
2018-04-12T02:05:40.764Z,93.02
2018-04-12T02:08:08.221Z,93.04
2018-04-12T02:10:35.694Z,92.92
2018-04-12T02:13:03.077Z,92.54
2018-04-12T02:15:30.474Z,92.03
2018-04-12T02:17:57.893Z,91.64
2018-04-12T02:20:25.286Z,90.96
2018-04-12T02:22:52.697Z,90.71
2018-04-12T02:25:20.085Z,90.42
2018-04-12T02:27:47.573Z,90.05
2018-04-12T02:30:14.981Z,90.43
2018-04-12T02:32:42.361Z,90.33
2018-04-12T02:35:09.761Z,90.21
2018-04-12T02:37:37.141Z,90.35
2018-04-12T02:40:04.541Z,89.94
2018-04-12T02:42:31.942Z,90.02
2018-04-12T02:44:59.337Z,89.91
2018-04-12T02:47:26.813Z,89.32
2018-04-12T02:49:54.218Z,89.46
2018-04-12T02:52:21.612Z,89.32
2018-04-12T02:54:49.010Z,89.00
2018-04-12T02:57:16.400Z,88.31
2018-04-12T02:59:43.889Z,89.26
2018-04-12T03:02:11.288Z,89.18
2018-04-12T03:04:39.619Z,89.07
2018-04-12T03:07:07.077Z,88.61
2018-04-12T03:09:34.475Z,89.06
2018-04-12T03:12:01.896Z,89.18
2018-04-12T03:14:29.316Z,89.24
2018-04-12T03:16:56.801Z,89.60
2018-04-12T03:19:24.197Z,89.48
2018-04-12T03:21:51.615Z,89.65
2018-04-12T03:24:19.065Z,89.68
2018-04-12T03:26:46.453Z,89.82
2018-04-12T03:29:13.850Z,89.85
2018-04-12T03:31:41.232Z,89.93
2018-04-12T03:34:08.622Z,90.38
2018-04-12T03:36:36.008Z,90.25
2018-04-12T03:39:03.401Z,90.17
2018-04-12T03:41:30.781Z,90.31
2018-04-12T03:43:58.177Z,90.57
2018-04-12T03:46:25.567Z,91.04
2018-04-12T03:48:53.026Z,91.46
2018-04-12T03:51:20.417Z,91.47
2018-04-12T03:53:47.812Z,91.60
2018-04-12T03:56:15.198Z,92.02
2018-04-12T03:58:42.612Z,92.19
2018-04-12T04:01:09.993Z,92.36
2018-04-12T04:03:37.391Z,92.24
2018-04-12T04:06:04.825Z,92.38
2018-04-12T04:08:32.213Z,92.59
2018-04-12T04:10:59.596Z,92.52
2018-04-12T04:13:26.991Z,92.12
2018-04-12T04:16:06.425Z,92.21
2018-04-12T04:18:45.690Z,92.19
2018-04-12T04:21:14.656Z,92.35
2018-04-12T04:23:42.048Z,92.13
2018-04-12T04:26:09.442Z,92.37
2018-04-12T04:28:36.841Z,92.47
2018-04-12T04:31:04.237Z,92.63
2018-04-12T04:33:31.696Z,92.66
2018-04-12T04:35:59.104Z,92.70
2018-04-12T04:38:26.477Z,92.73
2018-04-12T04:40:53.957Z,92.53
2018-04-12T04:43:21.348Z,92.62
2018-04-12T04:45:48.769Z,92.78
2018-04-12T04:48:16.224Z,92.85
2018-04-12T04:50:43.574Z,92.73
2018-04-12T04:53:10.953Z,92.82
2018-04-12T04:55:38.365Z,92.43
2018-04-12T04:58:05.755Z,92.49
2018-04-12T05:00:33.152Z,92.36
2018-04-12T05:03:00.532Z,92.55
2018-04-12T05:05:27.925Z,92.66
2018-04-12T05:07:55.312Z,92.66
2018-04-12T05:10:22.706Z,92.82
2018-04-12T05:12:50.095Z,92.96
2018-04-12T05:15:17.513Z,93.02
2018-04-12T05:17:44.893Z,92.90
2018-04-12T05:20:12.361Z,93.00
2018-04-12T05:22:39.755Z,92.98
2018-04-12T05:25:07.160Z,92.95
2018-04-12T05:27:34.625Z,92.91
2018-04-12T05:30:02.037Z,92.92
2018-04-12T05:32:29.425Z,93.09
2018-04-12T05:34:56.882Z,92.94
2018-04-12T05:37:24.257Z,92.85
2018-04-12T05:39:51.720Z,92.73
2018-04-12T05:42:19.088Z,92.42
2018-04-12T05:44:46.509Z,92.38
2018-04-12T05:47:13.898Z,92.51
2018-04-12T05:49:41.308Z,92.32
2018-04-12T05:52:08.681Z,92.32
2018-04-12T05:54:36.134Z,92.22
2018-04-12T05:57:03.606Z,92.02
2018-04-12T05:59:31.001Z,92.32
2018-04-12T06:01:58.393Z,92.62
2018-04-12T06:04:25.791Z,92.50
2018-04-12T06:06:53.213Z,92.56
2018-04-12T06:09:20.604Z,92.62
2018-04-12T06:11:47.995Z,92.63
2018-04-12T06:14:15.374Z,92.59
2018-04-12T06:16:42.838Z,92.51
2018-04-12T06:19:10.229Z,92.15
2018-04-12T06:21:37.664Z,91.79
2018-04-12T06:24:05.049Z,91.99
2018-04-12T06:26:32.462Z,92.19
2018-04-12T06:28:59.857Z,92.16
2018-04-12T06:31:27.252Z,91.99
2018-04-12T06:33:54.740Z,92.04
2018-04-12T06:36:22.122Z,92.04
2018-04-12T06:38:49.509Z,92.13
2018-04-12T06:41:16.936Z,91.94
2018-04-12T06:43:44.321Z,91.67
2018-04-12T06:46:11.718Z,91.19
2018-04-12T06:48:39.101Z,91.38
2018-04-12T06:51:06.504Z,91.70
2018-04-12T06:53:33.884Z,91.58
2018-04-12T06:56:01.285Z,91.96
2018-04-12T06:58:28.666Z,92.00
2018-04-12T07:00:56.828Z,92.03
2018-04-12T07:03:24.312Z,91.82
2018-04-12T07:05:51.797Z,91.95
2018-04-12T07:08:19.137Z,91.39
2018-04-12T07:10:46.534Z,91.41
2018-04-12T07:13:13.916Z,91.51
2018-04-12T07:15:41.308Z,91.40
2018-04-12T07:18:09.248Z,91.58
2018-04-12T07:20:36.641Z,90.99
2018-04-12T07:23:04.101Z,90.40
2018-04-12T07:25:31.496Z,90.48
2018-04-12T07:27:58.978Z,90.73
2018-04-12T07:30:26.370Z,90.72
2018-04-12T07:32:53.761Z,90.43
2018-04-12T07:35:21.152Z,90.40
2018-04-12T07:37:48.541Z,90.83
2018-04-12T07:40:15.932Z,91.16
2018-04-12T07:42:43.318Z,90.93
2018-04-12T07:45:10.760Z,91.00
2018-04-12T07:47:38.148Z,90.92
2018-04-12T07:50:05.559Z,90.52
2018-04-12T07:52:33.027Z,90.84
2018-04-12T07:55:00.476Z,90.50
2018-04-12T07:57:27.871Z,90.15
2018-04-12T07:59:55.266Z,89.64
2018-04-12T08:02:22.751Z,89.90
2018-04-12T08:04:50.137Z,89.41
2018-04-12T08:07:17.538Z,89.67
2018-04-12T08:09:44.917Z,90.08
2018-04-12T08:12:12.308Z,90.21
2018-04-12T08:14:39.697Z,90.81
2018-04-12T08:17:07.090Z,90.37
2018-04-12T08:19:34.479Z,89.15
2018-04-12T08:22:01.889Z,89.68
2018-04-12T08:24:29.277Z,89.13
2018-04-12T08:26:56.705Z,88.66
2018-04-12T08:29:24.089Z,89.09
2018-04-12T08:31:51.508Z,88.55
2018-04-12T08:34:18.893Z,88.03
2018-04-12T08:36:46.350Z,87.37
2018-04-12T08:39:13.734Z,88.00
2018-04-12T08:41:41.137Z,87.82
2018-04-12T08:44:08.597Z,88.10
2018-04-12T08:46:35.994Z,87.93
2018-04-12T08:49:03.378Z,87.76
2018-04-12T08:51:30.779Z,86.87
2018-04-12T08:53:58.213Z,86.44
2018-04-12T08:56:25.669Z,86.04
2018-04-12T08:58:53.061Z,85.02
2018-04-12T09:01:20.485Z,84.63
2018-04-12T09:03:47.851Z,84.08
2018-04-12T09:06:15.245Z,83.63
2018-04-12T09:08:42.634Z,82.58
2018-04-12T09:11:10.026Z,82.67
2018-04-12T09:13:37.408Z,81.94
2018-04-12T09:16:04.915Z,82.11
2018-04-12T09:18:32.308Z,81.92
2018-04-12T09:20:59.710Z,81.50
2018-04-12T09:23:27.096Z,81.09
2018-04-12T09:25:54.502Z,81.00
2018-04-12T09:28:21.992Z,80.83
2018-04-12T09:30:50.281Z,79.72
2018-04-12T09:33:17.682Z,79.29
2018-04-12T09:35:45.216Z,79.61
2018-04-12T09:38:12.609Z,80.03
2018-04-12T09:40:40.097Z,79.80
2018-04-12T09:43:07.552Z,78.28
2018-04-12T09:45:34.957Z,78.05
2018-04-12T09:48:02.341Z,78.18
2018-04-12T09:50:29.743Z,77.08
2018-04-12T09:52:57.129Z,76.25
2018-04-12T09:55:24.526Z,76.08
2018-04-12T09:57:51.915Z,75.60
2018-04-12T10:00:25.025Z,74.57
2018-04-12T10:02:56.222Z,73.43
2018-04-12T10:05:29.568Z,72.97
2018-04-12T10:10:57.249Z,69.86
2018-04-12T10:13:24.669Z,69.04
2018-04-12T10:15:52.053Z,69.17
2018-04-12T10:18:19.443Z,67.46
2018-04-12T10:20:46.840Z,69.36
2018-04-12T10:23:14.226Z,68.42
2018-04-12T10:25:41.616Z,68.58
2018-04-12T10:28:09.009Z,67.39
2018-04-12T10:30:36.430Z,67.17
2018-04-12T10:33:03.900Z,67.23
2018-04-12T10:35:31.297Z,64.46
2018-04-12T10:37:58.706Z,65.36
2018-04-12T10:40:26.168Z,66.97
2018-04-12T10:42:54.121Z,64.44
2018-04-12T10:45:21.513Z,64.93
2018-04-12T10:47:48.917Z,64.21
2018-04-12T10:50:16.296Z,62.88
2018-04-12T10:52:43.760Z,64.63
2018-04-12T10:55:11.153Z,61.08
2018-04-12T10:57:38.553Z,61.43
2018-04-12T11:00:05.948Z,62.28
2018-04-12T11:02:33.347Z,63.24
2018-04-12T11:05:00.748Z,64.85
2018-04-12T11:07:28.137Z,64.51
2018-04-12T11:09:55.553Z,63.41
2018-04-12T11:12:22.973Z,64.27
2018-04-12T11:14:50.369Z,64.59
2018-04-12T11:17:17.760Z,64.13
2018-04-12T11:19:45.153Z,64.24
2018-04-12T11:22:12.553Z,64.30
2018-04-12T11:24:39.959Z,64.29
2018-04-12T11:27:07.458Z,63.64
2018-04-12T11:29:34.914Z,64.86
2018-04-12T11:32:02.301Z,65.29
2018-04-12T11:34:29.765Z,66.13
2018-04-12T11:36:57.146Z,67.25
2018-04-12T11:39:24.521Z,66.12
2018-04-12T11:41:51.922Z,65.98
2018-04-12T11:44:19.321Z,65.92
2018-04-12T11:46:46.712Z,66.47
2018-04-12T11:49:14.107Z,64.71
2018-04-12T11:51:41.503Z,65.05
2018-04-12T11:54:08.893Z,64.94
2018-04-12T11:56:36.315Z,64.50
2018-04-12T11:59:03.696Z,64.91
2018-04-12T12:01:31.093Z,65.43
2018-04-12T12:03:58.496Z,64.75
2018-04-12T12:06:25.905Z,64.15
2018-04-12T12:08:53.362Z,64.97
2018-04-12T12:11:20.752Z,64.14
2018-04-12T12:13:48.153Z,63.48
2018-04-12T12:16:15.544Z,62.74
2018-04-12T12:18:42.932Z,63.13
2018-04-12T12:21:10.336Z,63.90
2018-04-12T12:23:37.771Z,62.94
2018-04-12T12:26:05.121Z,62.70
2018-04-12T12:28:32.571Z,61.76
2018-04-12T12:30:59.959Z,62.15
2018-04-12T12:33:27.344Z,62.59
2018-04-12T12:35:54.738Z,61.56
2018-04-12T12:38:22.136Z,61.68
2018-04-12T12:40:49.611Z,60.51
2018-04-12T12:43:16.990Z,60.84
2018-04-12T12:45:44.405Z,60.47
2018-04-12T12:48:11.802Z,60.25
2018-04-12T12:50:39.211Z,60.97
2018-04-12T12:53:06.615Z,59.50
2018-04-12T12:55:34.028Z,58.36
2018-04-12T12:58:01.503Z,58.45
2018-04-12T13:00:28.971Z,59.06
2018-04-12T13:02:56.357Z,59.71
2018-04-12T13:05:23.741Z,59.44
2018-04-12T13:07:51.161Z,57.73
2018-04-12T13:10:18.616Z,58.53
2018-04-12T13:12:46.012Z,57.67
2018-04-12T13:15:13.396Z,58.04
2018-04-12T13:17:40.801Z,58.92
2018-04-12T13:20:08.210Z,58.27
2018-04-12T13:22:35.597Z,56.61
2018-04-12T13:25:03.047Z,56.60
2018-04-12T13:27:30.388Z,57.46
2018-04-12T13:29:57.785Z,56.83
2018-04-12T13:32:25.193Z,55.86
2018-04-12T13:34:52.673Z,55.35
2018-04-12T13:37:20.132Z,56.77
2018-04-12T13:39:47.520Z,56.44
2018-04-12T13:42:14.924Z,56.53
2018-04-12T13:44:42.321Z,57.14
2018-04-12T13:47:09.761Z,55.28
2018-04-12T13:49:37.152Z,56.85
2018-04-12T13:52:04.557Z,55.40
2018-04-12T13:54:31.948Z,55.72
2018-04-12T13:56:59.353Z,55.56
2018-04-12T13:59:26.744Z,55.74
2018-04-12T14:01:54.142Z,56.28
2018-04-12T14:04:21.539Z,56.67
2018-04-12T14:06:48.929Z,56.84
2018-04-12T14:09:16.361Z,58.14
2018-04-12T14:11:43.821Z,55.67
2018-04-12T14:14:11.280Z,55.43
2018-04-12T14:16:38.669Z,55.47
2018-04-12T14:19:06.057Z,56.06
2018-04-12T14:21:33.550Z,56.07
2018-04-12T14:24:00.941Z,55.99
2018-04-12T14:26:28.329Z,56.43
2018-04-12T14:28:55.827Z,55.33
2018-04-12T14:31:23.208Z,54.66
2018-04-12T14:33:50.609Z,54.44
2018-04-12T14:36:18.135Z,54.63
2018-04-12T14:38:45.501Z,55.38
2018-04-12T14:41:12.899Z,54.46
2018-04-12T14:43:40.355Z,53.48
2018-04-12T14:46:07.742Z,52.78
2018-04-12T14:48:35.137Z,52.84
2018-04-12T14:51:02.531Z,53.27
2018-04-12T14:53:30.000Z,53.98
2018-04-12T14:55:57.362Z,53.42
2018-04-12T14:58:24.789Z,53.88
2018-04-12T15:00:52.190Z,54.68
2018-04-12T15:03:19.586Z,54.36
2018-04-12T15:05:47.062Z,53.46
2018-04-12T15:08:14.563Z,54.06
2018-04-12T15:10:42.043Z,55.17
2018-04-12T15:13:09.441Z,54.54
2018-04-12T15:15:36.889Z,54.10
2018-04-12T15:18:04.349Z,53.08
2018-04-12T15:20:31.742Z,54.29
2018-04-12T15:22:59.132Z,53.85
2018-04-12T15:25:26.526Z,54.06
2018-04-12T15:27:53.925Z,53.63
2018-04-12T15:30:21.357Z,53.99
2018-04-12T15:32:48.752Z,54.03
2018-04-12T15:35:16.152Z,54.08
2018-04-12T15:37:43.554Z,54.39
2018-04-12T15:40:10.949Z,55.29
2018-04-12T15:42:38.343Z,54.66
2018-04-12T15:45:05.773Z,55.31
2018-04-12T15:47:33.181Z,55.14
2018-04-12T15:50:00.568Z,54.53
2018-04-12T15:52:27.972Z,54.43
2018-04-12T15:54:55.419Z,54.53
2018-04-12T15:57:22.849Z,54.99
2018-04-12T15:59:50.309Z,55.13
2018-04-12T16:02:17.705Z,55.36
2018-04-12T16:04:45.102Z,55.62
2018-04-12T16:07:12.526Z,55.83
2018-04-12T16:09:39.925Z,55.25
2018-04-12T16:12:07.397Z,55.30
2018-04-12T16:14:34.857Z,55.75
2018-04-12T16:17:02.233Z,55.92
2018-04-12T16:19:29.629Z,55.15
2018-04-12T16:21:57.122Z,55.71
2018-04-12T16:24:24.517Z,55.52
2018-04-12T16:26:51.958Z,55.92
2018-04-12T16:29:19.357Z,55.49
2018-04-12T16:31:46.845Z,55.58
2018-04-12T16:34:14.625Z,56.15
2018-04-12T16:36:42.160Z,56.08
2018-04-12T16:39:10.504Z,56.00
2018-04-12T16:41:37.900Z,56.39
2018-04-12T16:44:05.301Z,56.08
2018-04-12T16:46:32.693Z,56.33
2018-04-12T16:49:00.120Z,56.62
2018-04-12T16:51:27.507Z,56.49
2018-04-12T16:53:54.903Z,56.87
2018-04-12T16:56:22.300Z,56.88
2018-04-12T16:58:49.808Z,57.04
2018-04-12T17:01:17.186Z,57.41
2018-04-12T17:03:44.658Z,57.58
2018-04-12T17:06:12.050Z,57.58
2018-04-12T17:08:39.435Z,57.79
2018-04-12T17:11:06.824Z,58.20
2018-04-12T17:13:34.222Z,58.46
2018-04-12T17:16:01.638Z,58.50
2018-04-12T17:18:29.153Z,58.81
2018-04-12T17:20:56.596Z,59.12
2018-04-12T17:23:23.984Z,59.45
2018-04-12T17:25:51.381Z,59.66
2018-04-12T17:28:18.776Z,59.85
2018-04-12T17:30:46.177Z,59.98
2018-04-12T17:33:13.677Z,59.79
2018-04-12T17:35:41.072Z,60.44
2018-04-12T17:38:08.465Z,59.82
2018-04-12T17:40:35.870Z,60.12
2018-04-12T17:43:03.253Z,60.60
2018-04-12T17:45:30.653Z,60.71
2018-04-12T17:47:58.113Z,61.05
2018-04-12T17:50:25.509Z,61.12
2018-04-12T17:52:52.924Z,61.21
2018-04-12T17:55:20.385Z,61.82
2018-04-12T17:57:47.841Z,61.86
2018-04-12T18:00:15.247Z,62.23
2018-04-12T18:02:42.649Z,62.57
2018-04-12T18:05:10.057Z,62.63
2018-04-12T18:07:37.464Z,62.84
2018-04-12T18:10:04.868Z,63.10
2018-04-12T18:12:32.257Z,63.03
2018-04-12T18:14:59.782Z,63.25
2018-04-12T18:17:27.164Z,63.55
2018-04-12T18:19:54.579Z,63.41
2018-04-12T18:22:22.001Z,63.71
2018-04-12T18:24:50.084Z,63.42
2018-04-12T18:27:17.496Z,63.28
2018-04-12T18:29:44.895Z,63.51
2018-04-12T18:32:12.310Z,63.68
2018-04-12T18:34:39.814Z,64.21
2018-04-12T18:37:07.286Z,64.65
2018-04-12T18:39:34.704Z,64.78
2018-04-12T18:42:02.114Z,64.75
2018-04-12T18:44:29.500Z,64.62
2018-04-12T18:46:56.913Z,64.67
2018-04-12T18:49:24.377Z,64.04
2018-04-12T18:51:51.818Z,64.60
2018-04-12T18:54:19.290Z,64.69
2018-04-12T18:56:46.689Z,64.93
2018-04-12T18:59:14.123Z,65.23
2018-04-12T19:01:41.482Z,65.36
2018-04-12T19:04:08.909Z,65.68
2018-04-12T19:06:36.405Z,66.34
2018-04-12T19:09:03.938Z,66.45
2018-04-12T19:11:31.324Z,66.85
2018-04-12T19:13:59.104Z,66.73
2018-04-12T19:16:26.637Z,66.81
2018-04-12T19:18:54.098Z,67.05
2018-04-12T19:21:22.071Z,67.15
2018-04-12T19:23:49.505Z,67.22
2018-04-12T19:26:16.885Z,67.40
2018-04-12T19:28:44.337Z,67.56
2018-04-12T19:31:11.773Z,67.65
2018-04-12T19:33:39.170Z,67.68
2018-04-12T19:36:06.605Z,67.59
2018-04-12T19:38:34.016Z,67.85
2018-04-12T19:41:01.424Z,67.77
2018-04-12T19:43:28.849Z,67.66
2018-04-12T19:45:56.297Z,67.76
2018-04-12T19:48:23.758Z,67.66
2018-04-12T19:50:51.153Z,67.74
2018-04-12T19:53:18.545Z,67.69
2018-04-12T19:55:45.954Z,67.68
2018-04-12T19:58:13.381Z,67.47
2018-04-12T20:00:40.771Z,67.57
2018-04-12T20:03:08.170Z,67.47
2018-04-12T20:05:35.610Z,67.55
2018-04-12T20:08:02.992Z,67.33
2018-04-12T20:10:30.413Z,67.62
2018-04-12T20:12:57.804Z,67.52
2018-04-12T20:15:25.278Z,67.72
2018-04-12T20:17:52.677Z,67.83
2018-04-12T20:20:20.963Z,67.82
2018-04-12T20:22:48.447Z,68.04
2018-04-12T20:25:15.881Z,68.01
2018-04-12T20:27:43.356Z,68.10
2018-04-12T20:30:10.785Z,67.86
2018-04-12T20:32:38.197Z,68.07
2018-04-12T20:35:05.627Z,67.94
2018-04-12T20:37:33.016Z,68.28
2018-04-12T20:40:00.404Z,68.36
2018-04-12T20:42:27.880Z,68.49
2018-04-12T20:44:55.279Z,68.95
2018-04-12T20:47:22.697Z,69.08
2018-04-12T20:49:50.094Z,69.29
2018-04-12T20:52:17.496Z,69.40
2018-04-12T20:54:44.890Z,69.30
2018-04-12T20:57:12.296Z,69.28
2018-04-12T20:59:40.368Z,69.09
2018-04-12T21:02:07.845Z,69.35
2018-04-12T21:04:35.236Z,69.37
2018-04-12T21:07:02.653Z,69.01
2018-04-12T21:09:30.048Z,68.86
2018-04-12T21:11:57.449Z,69.06
2018-04-12T21:14:24.899Z,68.78
2018-04-12T21:16:52.273Z,68.54
2018-04-12T21:19:19.657Z,68.52
2018-04-12T21:21:47.084Z,68.30
2018-04-12T21:24:14.467Z,68.15
2018-04-12T21:26:41.856Z,68.14
2018-04-12T21:29:09.245Z,68.24
2018-04-12T21:31:36.675Z,68.20
2018-04-12T21:34:04.060Z,68.29
2018-04-12T21:36:31.464Z,68.11
2018-04-12T21:38:58.914Z,68.23
2018-04-12T21:41:26.393Z,68.04
2018-04-12T21:43:53.801Z,68.06
2018-04-12T21:46:21.261Z,67.64
2018-04-12T21:48:48.653Z,67.98
2018-04-12T21:51:16.077Z,68.02
2018-04-12T21:53:43.537Z,67.66
2018-04-12T21:56:10.993Z,67.58
2018-04-12T21:58:38.388Z,67.40
2018-04-12T22:01:05.792Z,67.40
2018-04-12T22:03:33.181Z,67.11
2018-04-12T22:06:00.720Z,67.14
2018-04-12T22:08:28.112Z,66.84
2018-04-12T22:10:55.514Z,66.83
2018-04-12T22:13:22.908Z,67.13
2018-04-12T22:15:50.294Z,66.79
2018-04-12T22:18:17.704Z,67.01
2018-04-12T22:20:45.093Z,66.85
2018-04-12T22:23:12.500Z,67.09
2018-04-12T22:25:39.893Z,66.99
2018-04-12T22:28:07.289Z,67.13
2018-04-12T22:30:34.690Z,67.05
2018-04-12T22:33:02.126Z,67.09
2018-04-12T22:35:29.584Z,67.22
2018-04-12T22:37:56.976Z,67.33
2018-04-12T22:40:24.368Z,67.13
2018-04-12T22:42:51.768Z,67.08
2018-04-12T22:45:19.153Z,67.35
2018-04-12T22:47:46.561Z,67.53
2018-04-12T22:50:13.948Z,68.05
2018-04-12T22:52:41.340Z,68.46
2018-04-12T22:55:08.732Z,68.62
2018-04-12T22:57:36.128Z,68.30
2018-04-12T23:00:04.073Z,68.88
2018-04-12T23:02:31.521Z,70.11
2018-04-12T23:04:58.969Z,70.28
2018-04-12T23:07:26.945Z,70.33
2018-04-12T23:09:54.328Z,71.22
2018-04-12T23:12:21.724Z,72.02
2018-04-12T23:14:49.173Z,72.02
2018-04-12T23:17:16.579Z,72.14
2018-04-12T23:19:43.969Z,72.82
2018-04-12T23:22:11.364Z,73.72
2018-04-12T23:24:38.789Z,75.14
2018-04-12T23:38:29.986Z,80.78
2018-04-12T23:40:57.670Z,80.95
2018-04-12T23:43:25.098Z,80.95
2018-04-12T23:45:52.552Z,80.80
2018-04-12T23:48:19.963Z,80.61
2018-04-12T23:50:47.345Z,80.30
2018-04-12T23:53:14.749Z,79.69
2018-04-12T23:55:42.176Z,80.36
2018-04-12T23:58:09.577Z,81.39
